Impacts METAR Board
IDs:

KELA - Eagle Lake Arpt, TX, US

Updated at: 0000 UTC 19 Oct 2019
Potential Impact None Slight Moderate High
Time 18/12Z 18/13Z 18/14Z 18/15Z 18/16Z 18/17Z 18/18Z 18/19Z 18/20Z 18/21Z 18/22Z 18/23Z 19/00Z
Temp52 53 58 64 68 75 78 82 84 85 84 83 77
Dewpt51 52 55 57 58 54 49 47 50 52 53 55 59
Altim29.89 29.89 29.89 29.89 29.89 29.87 29.84 29.79 29.76 29.75 29.74 29.74 29.73
VIS10 10 10 10 10 10 10 10 10 10 10 10 10
CIG-- -- -- -- -- -- -- -- -- -- -- -- --
CoverCLRCLRCLRCLRCLRCLRCLRCLRCLRCLRCLRCLRCLR
FltCatVFRVFRVFRVFRVFRVFRVFRVFRVFRVFRVFRVFRVFR
WX--------------------------
WDir2036030600003011090160170150
WSpd4 3 5 6 0 0 0 6 5 3 4 4 3
WGst-- -- -- -- -- -- -- -- -- -- -- -- --
Raw hourly METARs
KELA 181155Z AUTO 02004KT 10SM CLR 11/11 A2989 RMK AO2 T01130107 10133 20112
KELA 181255Z AUTO 36003KT 10SM CLR 12/11 A2989 RMK AO2 T01160110
KELA 181355Z AUTO 03005KT 10SM CLR 15/13 A2989 RMK AO2 T01450127
KELA 181455Z AUTO 06006KT 10SM CLR 18/14 A2989 RMK AO2 T01760141
KELA 181555Z AUTO 00000KT 10SM CLR 20/15 A2989 RMK AO2 T02010146
KELA 181655Z AUTO 00000KT 10SM CLR 24/12 A2987 RMK AO2 T02380124
KELA 181755Z AUTO 00000KT 10SM CLR 26/09 A2984 RMK AO2 T02570092 10258 20112
KELA 181855Z AUTO 03006KT 10SM CLR 28/09 A2979 RMK AO2 T02760086
KELA 181955Z AUTO 11005KT 10SM CLR 29/10 A2976 RMK AO2 T02870101
KELA 182055Z AUTO 09003KT 10SM CLR 29/11 A2975 RMK AO2 T02920110
KELA 182155Z AUTO 16004KT 10SM CLR 29/12 A2974 RMK AO2 T02910115
KELA 182255Z AUTO 17004KT 10SM CLR 28/13 A2974 RMK AO2 T02810128
KELA 182355Z AUTO 15003KT 10SM CLR 25/15 A2973 RMK AO2 T02480150 10297 20248